Colmar, Illinois
Current Conditions -  °F | °C
As of 8:35 AM on Monday 20 Oct 2014 (Local Time) from KMQB Reporting Station
Clear Clear  
Wind Chill: 52°   Ceiling: Unl
Heat Index: 52°   Visibility: 10mi
Dew Point: 47°   Wind: 10mph
Humidity: 83%   Direction: 300°WNW
Pressure: 29.97"   Gusts: NA
Location:  40.2814°N, 90.8526°W
Report Text: KMQB 201335Z AUTO 30009KT 10SM CLR 11/08 A2997 RMK AO2 T01090082
Loading
Personal Weather Stations






























Interactive Weather Map
Tropical Storm Tracking
New forecast layout! Learn more

10-Day Weather Forecast

Advertisements
Track Severe Weather on mobile